Time,TemperatureF,DewpointF,PressureIn,WindDirection,WindDirectionDegrees,WindSpeedMPH,WindSpeedGustMPH,Humidity,HourlyPrecipIn,Conditions,Clouds,dailyrainin,SoftwareType,DateUTC
2013-04-11 00:01:00,42.7,36.6,29.91,NNE,21,6.0,13.0,79,0.00,,,0.00,WeatherCatV1.02B3,2013-04-11 05:01:00,
2013-04-11 00:06:00,42.6,36.9,29.91,NNW,333,6.0,16.0,80,0.00,,,0.00,WeatherCatV1.02B3,2013-04-11 05:06:00,
2013-04-11 00:11:00,42.4,37.0,29.91,NNE,33,8.0,8.0,81,0.00,,,0.00,WeatherCatV1.02B3,2013-04-11 05:11:00,
2013-04-11 00:16:00,42.3,36.9,29.90,NE,37,3.0,9.0,81,0.00,,,0.00,WeatherCatV1.02B3,2013-04-11 05:16:00,
2013-04-11 00:21:00,42.2,36.8,29.90,NE,35,9.0,12.0,81,0.00,,,0.00,WeatherCatV1.02B3,2013-04-11 05:21:00,
2013-04-11 00:26:00,42.1,36.7,29.90,North,350,3.0,8.0,81,0.00,,,0.00,WeatherCatV1.02B3,2013-04-11 05:26:00,
2013-04-11 00:31:00,41.9,36.8,29.89,North,351,5.0,6.0,82,0.00,,,0.00,WeatherCatV1.02B3,2013-04-11 05:31:00,
2013-04-11 00:36:00,41.8,36.1,29.89,WNW,299,3.0,12.0,80,0.00,,,0.00,WeatherCatV1.02B3,2013-04-11 05:36:00,
2013-04-11 00:41:00,41.7,36.0,29.89,North,0,3.0,13.0,80,0.00,,,0.00,WeatherCatV1.02B3,2013-04-11 05:41:00,
2013-04-11 00:46:00,41.7,36.0,29.90,NNE,19,4.0,15.0,80,0.00,,,0.00,WeatherCatV1.02B3,2013-04-11 05:46:00,
2013-04-11 00:51:00,41.6,36.2,29.90,NNW,348,4.0,13.0,81,0.00,,,0.00,WeatherCatV1.02B3,2013-04-11 05:51:00,
2013-04-11 00:56:00,41.5,35.8,29.90,NNE,16,4.0,12.0,80,0.00,,,0.00,WeatherCatV1.02B3,2013-04-11 05:56:00,
2013-04-11 01:01:00,41.4,35.7,29.89,North,5,0.0,9.0,80,0.00,,,0.00,WeatherCatV1.02B3,2013-04-11 06:01:00,
2013-04-11 01:06:00,41.4,36.0,29.89,NNE,15,0.0,6.0,81,0.00,,,0.00,WeatherCatV1.02B3,2013-04-11 06:06:00,
2013-04-11 01:11:00,41.4,35.7,29.89,NE,40,6.0,14.0,80,0.00,,,0.00,WeatherCatV1.02B3,2013-04-11 06:11:00,
2013-04-11 01:16:00,41.3,35.9,29.88,North,0,7.0,10.0,81,0.00,,,0.00,WeatherCatV1.02B3,2013-04-11 06:16:00,
2013-04-11 01:21:00,41.3,35.6,29.88,NNE,28,2.0,4.0,80,0.00,,,0.00,WeatherCatV1.02B3,2013-04-11 06:21:00,
2013-04-11 01:26:00,41.2,35.8,29.88,North,5,4.0,14.0,81,0.00,,,0.00,WeatherCatV1.02B3,2013-04-11 06:26:00,
2013-04-11 01:31:00,41.1,35.4,29.88,North,11,3.0,8.0,80,0.00,,,0.00,WeatherCatV1.02B3,2013-04-11 06:31:00,
2013-04-11 01:36:00,41.1,35.4,29.88,North,5,4.0,10.0,80,0.00,,,0.00,WeatherCatV1.02B3,2013-04-11 06:36:00,
2013-04-11 01:41:00,41.0,35.3,29.88,NW,316,3.0,15.0,80,0.00,,,0.00,WeatherCatV1.02B3,2013-04-11 06:41:00,
2013-04-11 01:46:00,40.9,35.2,29.88,North,349,5.0,7.0,80,0.00,,,0.00,WeatherCatV1.02B3,2013-04-11 06:46:00,
2013-04-11 01:51:00,40.9,35.8,29.88,North,355,5.0,10.0,82,0.00,,,0.00,WeatherCatV1.02B3,2013-04-11 06:51:00,
2013-04-11 01:56:00,40.9,35.5,29.88,NE,39,2.0,11.0,81,0.00,,,0.00,WeatherCatV1.02B3,2013-04-11 06:56:00,
2013-04-11 02:01:00,40.9,35.5,29.87,NNE,26,5.0,13.0,81,0.00,,,0.00,WeatherCatV1.02B3,2013-04-11 07:01:00,
2013-04-11 02:06:00,40.8,35.4,29.87,NNE,32,0.0,4.0,81,0.00,,,0.00,WeatherCatV1.02B3,2013-04-11 07:06:00,
2013-04-11 02:11:00,40.8,35.1,29.87,NE,38,2.0,10.0,80,0.00,,,0.00,WeatherCatV1.02B3,2013-04-11 07:11:00,
2013-04-11 02:16:00,40.8,35.7,29.89,North,0,2.0,11.0,82,0.00,,,0.00,WeatherCatV1.02B3,2013-04-11 07:16:00,
2013-04-11 02:21:00,40.8,35.4,29.89,NNW,328,4.0,6.0,81,0.00,,,0.00,WeatherCatV1.02B3,2013-04-11 07:21:00,
2013-04-11 02:26:00,40.8,35.1,29.89,North,5,2.0,7.0,80,0.00,,,0.00,WeatherCatV1.02B3,2013-04-11 07:26:00,
2013-04-11 02:31:00,40.8,35.1,29.90,NNE,26,4.0,6.0,80,0.00,,,0.00,WeatherCatV1.02B3,2013-04-11 07:31:00,
2013-04-11 02:36:00,40.9,35.2,29.90,NNE,21,4.0,9.0,80,0.00,,,0.00,WeatherCatV1.02B3,2013-04-11 07:36:00,
2013-04-11 02:41:00,40.9,35.2,29.90,NW,306,7.0,10.0,80,0.00,,,0.00,WeatherCatV1.02B3,2013-04-11 07:41:00,
2013-04-11 02:46:00,40.9,35.2,29.89,North,5,7.0,12.0,80,0.00,,,0.00,WeatherCatV1.02B3,2013-04-11 07:46:00,
2013-04-11 02:51:00,41.0,36.8,29.89,NE,46,6.0,11.0,85,0.00,,,0.00,WeatherCatV1.02B3,2013-04-11 07:51:00,
2013-04-11 02:56:00,41.1,35.7,29.89,NNE,32,10.0,16.0,81,0.00,,,0.00,WeatherCatV1.02B3,2013-04-11 07:56:00,
2013-04-11 03:01:00,41.1,35.1,29.88,North,0,10.0,16.0,79,0.00,,,0.00,WeatherCatV1.02B3,2013-04-11 08:01:00,
2013-04-11 03:06:00,41.2,35.5,29.88,NNE,15,7.0,17.0,80,0.00,,,0.00,WeatherCatV1.02B3,2013-04-11 08:06:00,
2013-04-11 03:11:00,41.2,35.5,29.88,NNE,20,1.0,13.0,80,0.00,,,0.00,WeatherCatV1.02B3,2013-04-11 08:11:00,
2013-04-11 03:16:00,41.2,35.5,29.89,NNE,19,2.0,5.0,80,0.00,,,0.00,WeatherCatV1.02B3,2013-04-11 08:16:00,
2013-04-11 03:21:00,41.2,35.5,29.89,North,10,5.0,7.0,80,0.00,,,0.00,WeatherCatV1.02B3,2013-04-11 08:21:00,
2013-04-11 03:26:00,41.2,35.8,29.89,NNE,24,0.0,4.0,81,0.00,,,0.00,WeatherCatV1.02B3,2013-04-11 08:26:00,
2013-04-11 03:31:00,41.1,35.1,29.89,North,5,4.0,10.0,79,0.00,,,0.00,WeatherCatV1.02B3,2013-04-11 08:31:00,
2013-04-11 03:36:00,41.0,34.7,29.89,NE,48,7.0,14.0,78,0.00,,,0.00,WeatherCatV1.02B3,2013-04-11 08:36:00,
2013-04-11 03:41:00,40.9,34.3,29.89,NNE,25,4.0,14.0,77,0.00,,,0.00,WeatherCatV1.02B3,2013-04-11 08:41:00,
2013-04-11 03:46:00,40.8,33.8,29.88,North,355,5.0,14.0,76,0.00,,,0.00,WeatherCatV1.02B3,2013-04-11 08:46:00,
2013-04-11 03:51:00,40.7,34.1,29.88,NNE,15,7.0,16.0,77,0.00,,,0.00,WeatherCatV1.02B3,2013-04-11 08:51:00,
2013-04-11 03:56:00,40.7,34.1,29.88,NNE,19,9.0,16.0,77,0.00,,,0.00,WeatherCatV1.02B3,2013-04-11 08:56:00,
2013-04-11 04:01:00,40.7,34.1,29.87,NNW,348,5.0,15.0,77,0.00,,,0.00,WeatherCatV1.02B3,2013-04-11 09:01:00,
2013-04-11 04:06:00,40.8,34.5,29.87,NNE,19,3.0,7.0,78,0.00,,,0.00,WeatherCatV1.02B3,2013-04-11 09:06:00,
2013-04-11 04:11:00,40.8,34.5,29.87,NE,43,5.0,10.0,78,0.00,,,0.00,WeatherCatV1.02B3,2013-04-11 09:11:00,
2013-04-11 04:16:00,40.8,34.5,29.89,NNE,15,5.0,12.0,78,0.00,,,0.00,WeatherCatV1.02B3,2013-04-11 09:16:00,
2013-04-11 04:21:00,40.9,34.6,29.89,North,9,5.0,12.0,78,0.00,,,0.00,WeatherCatV1.02B3,2013-04-11 09:21:00,
2013-04-11 04:26:00,41.1,35.1,29.89,North,5,0.0,7.0,79,0.00,,,0.00,WeatherCatV1.02B3,2013-04-11 09:26:00,
2013-04-11 04:31:00,41.2,34.5,29.90,NNW,343,6.0,18.0,77,0.00,,,0.00,WeatherCatV1.02B3,2013-04-11 09:31:00,
2013-04-11 04:36:00,41.3,34.6,29.90,North,355,9.0,21.0,77,0.00,,,0.00,WeatherCatV1.02B3,2013-04-11 09:36:00,
2013-04-11 04:41:00,41.3,34.3,29.90,NNE,24,4.0,14.0,76,0.00,,,0.00,WeatherCatV1.02B3,2013-04-11 09:41:00,
2013-04-11 04:46:00,41.3,34.3,29.87,NE,36,7.0,13.0,76,0.00,,,0.00,WeatherCatV1.02B3,2013-04-11 09:46:00,
2013-04-11 04:51:00,41.2,34.2,29.87,ENE,67,10.0,14.0,76,0.00,,,0.00,WeatherCatV1.02B3,2013-04-11 09:51:00,
2013-04-11 04:56:00,41.3,34.6,29.87,NNW,346,6.0,13.0,77,0.00,,,0.00,WeatherCatV1.02B3,2013-04-11 09:56:00,
2013-04-11 05:01:00,41.4,35.1,29.87,NNE,19,4.0,12.0,78,0.00,,,0.00,WeatherCatV1.02B3,2013-04-11 10:01:00,
2013-04-11 05:06:00,41.4,35.1,29.87,NNE,24,6.0,11.0,78,0.00,,,0.00,WeatherCatV1.02B3,2013-04-11 10:06:00,
2013-04-11 05:11:00,41.4,35.1,29.87,NNW,339,13.0,13.0,78,0.00,,,0.00,WeatherCatV1.02B3,2013-04-11 10:11:00,
2013-04-11 05:16:00,41.5,34.8,29.87,NE,36,0.0,9.0,77,0.00,,,0.00,WeatherCatV1.02B3,2013-04-11 10:16:00,
2013-04-11 05:21:00,41.5,34.8,29.87,North,350,4.0,7.0,77,0.00,,,0.00,WeatherCatV1.02B3,2013-04-11 10:21:00,
2013-04-11 05:26:00,41.5,34.8,29.87,NNW,328,1.0,6.0,77,0.00,,,0.00,WeatherCatV1.02B3,2013-04-11 10:26:00,
2013-04-11 05:31:00,41.5,35.2,29.87,North,351,1.0,10.0,78,0.00,,,0.00,WeatherCatV1.02B3,2013-04-11 10:31:00,
2013-04-11 05:36:00,41.5,35.5,29.87,North,0,3.0,9.0,79,0.00,,,0.00,WeatherCatV1.02B3,2013-04-11 10:36:00,
2013-04-11 05:41:00,41.5,34.8,29.87,NNE,16,0.0,8.0,77,0.00,,,0.00,WeatherCatV1.02B3,2013-04-11 10:41:00,
2013-04-11 05:46:00,41.5,34.8,29.89,West,279,0.0,9.0,77,0.00,,,0.00,WeatherCatV1.02B3,2013-04-11 10:46:00,
2013-04-11 05:51:00,41.5,34.2,29.89,NNE,24,0.0,9.0,75,0.00,,,0.00,WeatherCatV1.02B3,2013-04-11 10:51:00,
2013-04-11 05:56:00,41.6,34.9,29.89,ENE,57,0.0,4.0,77,0.00,,,0.00,WeatherCatV1.02B3,2013-04-11 10:56:00,
2013-04-11 06:01:00,41.5,35.2,29.89,NNE,30,3.0,3.0,78,0.00,,,0.00,WeatherCatV1.02B3,2013-04-11 11:01:00,
2013-04-11 06:06:00,41.4,35.7,29.89,NE,50,0.0,4.0,80,0.00,,,0.00,WeatherCatV1.02B3,2013-04-11 11:06:00,
2013-04-11 06:12:00,41.1,35.1,29.89,NE,51,4.0,10.0,79,0.00,,,0.00,WeatherCatV1.02B3,2013-04-11 11:12:00,
2013-04-11 06:17:00,40.6,34.3,29.89,NNE,24,3.0,3.0,78,0.00,,,0.00,WeatherCatV1.02B3,2013-04-11 11:17:00,
2013-04-11 06:22:00,40.2,34.2,29.89,North,5,0.0,4.0,79,0.00,,,0.00,WeatherCatV1.02B3,2013-04-11 11:22:00,
2013-04-11 06:27:00,40.0,34.0,29.89,NNE,30,5.0,5.0,79,0.00,,,0.00,WeatherCatV1.02B3,2013-04-11 11:27:00,
2013-04-11 06:32:00,39.9,33.9,29.88,NE,54,4.0,5.0,79,0.00,,,0.01,WeatherCatV1.02B3,2013-04-11 11:32:00,
2013-04-11 06:37:00,39.9,33.6,29.88,NNE,21,3.0,6.0,78,0.00,,,0.01,WeatherCatV1.02B3,2013-04-11 11:37:00,
2013-04-11 06:42:00,39.9,33.9,29.88,North,9,0.0,4.0,79,0.00,,,0.01,WeatherCatV1.02B3,2013-04-11 11:42:00,
2013-04-11 06:46:00,40.0,34.3,29.87,NNE,24,6.0,11.0,80,0.00,,,0.01,WeatherCatV1.02B3,2013-04-11 11:46:00,
2013-04-11 06:51:00,40.0,33.7,29.87,NNE,32,0.0,6.0,78,0.00,,,0.01,WeatherCatV1.02B3,2013-04-11 11:51:00,
2013-04-11 06:56:00,40.1,34.4,29.87,NE,36,0.0,6.0,80,0.00,,,0.01,WeatherCatV1.02B3,2013-04-11 11:56:00,
2013-04-11 07:02:00,40.1,34.4,29.89,NE,55,0.0,3.0,80,0.00,,,0.01,WeatherCatV1.02B3,2013-04-11 12:02:00,
2013-04-11 07:07:00,40.1,34.4,29.89,NE,55,0.0,0.0,80,0.00,,,0.01,WeatherCatV1.02B3,2013-04-11 12:07:00,
2013-04-11 07:12:00,40.1,34.4,29.89,NE,55,0.0,0.0,80,0.00,,,0.01,WeatherCatV1.02B3,2013-04-11 12:12:00,
2013-04-11 07:17:00,40.2,34.8,29.90,NE,55,0.0,0.0,81,0.00,,,0.01,WeatherCatV1.02B3,2013-04-11 12:17:00,
2013-04-11 07:22:00,40.2,34.8,29.90,NE,55,0.0,0.0,81,0.00,,,0.01,WeatherCatV1.02B3,2013-04-11 12:22:00,
2013-04-11 07:26:00,40.2,35.2,29.90,NE,55,0.0,0.0,82,0.00,,,0.01,WeatherCatV1.02B3,2013-04-11 12:26:00,
2013-04-11 07:31:00,40.2,35.2,29.90,NE,55,0.0,0.0,82,0.00,,,0.01,WeatherCatV1.02B3,2013-04-11 12:31:00,
2013-04-11 07:36:00,40.3,35.2,29.90,NE,55,0.0,0.0,82,0.00,,,0.01,WeatherCatV1.02B3,2013-04-11 12:36:00,
2013-04-11 07:41:00,40.3,35.2,29.90,NE,55,0.0,0.0,82,0.00,,,0.01,WeatherCatV1.02B3,2013-04-11 12:41:00,
2013-04-11 07:46:00,40.3,35.2,29.91,NE,55,0.0,0.0,82,0.00,,,0.01,WeatherCatV1.02B3,2013-04-11 12:46:00,
2013-04-11 07:51:00,40.4,35.7,29.91,NE,55,0.0,0.0,83,0.00,,,0.01,WeatherCatV1.02B3,2013-04-11 12:51:00,
2013-04-11 07:56:00,40.4,35.7,29.91,NE,55,0.0,0.0,83,0.00,,,0.01,WeatherCatV1.02B3,2013-04-11 12:56:00,
2013-04-11 08:01:00,40.4,35.7,29.89,NE,55,0.0,0.0,83,0.00,,,0.01,WeatherCatV1.02B3,2013-04-11 13:01:00,
2013-04-11 08:06:00,40.5,35.4,29.89,NNE,23,4.0,6.0,82,0.00,,,0.01,WeatherCatV1.02B3,2013-04-11 13:06:00,
2013-04-11 08:11:00,40.7,34.7,29.89,WNW,286,0.0,5.0,79,0.00,,,0.01,WeatherCatV1.02B3,2013-04-11 13:11:00,
2013-04-11 08:16:00,40.9,34.6,29.87,North,355,0.0,4.0,78,0.00,,,0.01,WeatherCatV1.02B3,2013-04-11 13:16:00,
2013-04-11 08:21:00,41.1,34.8,29.87,NNE,26,0.0,1.0,78,0.00,,,0.01,WeatherCatV1.02B3,2013-04-11 13:21:00,
2013-04-11 08:26:00,41.3,35.0,29.87,NNE,23,2.0,4.0,78,0.00,,,0.01,WeatherCatV1.02B3,2013-04-11 13:26:00,
2013-04-11 08:31:00,41.6,34.9,29.85,North,9,1.0,6.0,77,0.00,,,0.01,WeatherCatV1.02B3,2013-04-11 13:31:00,
2013-04-11 08:36:00,41.9,35.2,29.85,North,355,3.0,7.0,77,0.00,,,0.01,WeatherCatV1.02B3,2013-04-11 13:36:00,
2013-04-11 08:41:00,42.2,35.2,29.85,NNE,19,0.0,8.0,76,0.00,,,0.01,WeatherCatV1.02B3,2013-04-11 13:41:00,
2013-04-11 08:46:00,42.5,35.1,29.85,North,0,0.0,9.0,75,0.00,,,0.01,WeatherCatV1.02B3,2013-04-11 13:46:00,
2013-04-11 08:51:00,42.7,35.3,29.85,NNW,345,4.0,4.0,75,0.00,,,0.01,WeatherCatV1.02B3,2013-04-11 13:51:00,
2013-04-11 08:56:00,42.8,34.8,29.85,WNW,288,6.0,9.0,73,0.00,,,0.01,WeatherCatV1.02B3,2013-04-11 13:56:00,
2013-04-11 09:01:00,43.0,34.9,29.87,NNW,329,3.0,3.0,73,0.00,,,0.01,WeatherCatV1.02B3,2013-04-11 14:01:00,
2013-04-11 09:06:00,43.1,34.3,29.87,North,0,4.0,9.0,71,0.00,,,0.01,WeatherCatV1.02B3,2013-04-11 14:06:00,
2013-04-11 09:11:00,43.3,34.2,29.87,NNW,338,0.0,0.0,70,0.00,,,0.01,WeatherCatV1.02B3,2013-04-11 14:11:00,
2013-04-11 09:16:00,43.6,34.8,29.89,NE,44,3.0,3.0,71,0.00,,,0.01,WeatherCatV1.02B3,2013-04-11 14:16:00,
2013-04-11 09:21:00,43.8,34.3,29.89,North,0,3.0,7.0,69,0.00,,,0.01,WeatherCatV1.02B3,2013-04-11 14:21:00,
2013-04-11 09:27:00,44.1,35.3,29.89,NNE,26,3.0,3.0,71,0.00,,,0.01,WeatherCatV1.02B3,2013-04-11 14:27:00,
2013-04-11 09:32:00,44.6,35.4,29.90,NW,318,0.0,2.0,70,0.00,,,0.01,WeatherCatV1.02B3,2013-04-11 14:32:00,
2013-04-11 09:37:00,44.9,35.0,29.90,NNE,14,0.0,10.0,68,0.00,,,0.01,WeatherCatV1.02B3,2013-04-11 14:37:00,
2013-04-11 09:41:00,45.3,35.0,29.90,North,0,4.0,6.0,67,0.00,,,0.01,WeatherCatV1.02B3,2013-04-11 14:41:00,
2013-04-11 09:46:00,45.5,34.8,29.90,North,10,5.0,6.0,66,0.00,,,0.01,WeatherCatV1.02B3,2013-04-11 14:46:00,
2013-04-11 09:51:00,45.8,34.7,29.90,NNE,27,1.0,6.0,65,0.00,,,0.01,WeatherCatV1.02B3,2013-04-11 14:51:00,
2013-04-11 09:57:00,46.1,35.0,29.90,NW,315,3.0,7.0,65,0.00,,,0.01,WeatherCatV1.02B3,2013-04-11 14:57:00,
2013-04-11 10:01:00,46.4,35.3,29.90,North,5,1.0,5.0,65,0.00,,,0.01,WeatherCatV1.02B3,2013-04-11 15:01:00,
2013-04-11 10:07:00,46.8,36.4,29.90,NNW,346,2.0,9.0,67,0.00,,,0.01,WeatherCatV1.02B3,2013-04-11 15:07:00,
2013-04-11 10:11:00,47.3,36.9,29.90,NE,49,1.0,6.0,67,0.00,,,0.01,WeatherCatV1.02B3,2013-04-11 15:11:00,
2013-04-11 10:16:00,47.6,35.2,29.90,North,9,8.0,10.0,62,0.00,,,0.01,WeatherCatV1.02B3,2013-04-11 15:16:00,
2013-04-11 10:21:00,47.9,34.3,29.90,NE,46,1.0,10.0,59,0.00,,,0.01,WeatherCatV1.02B3,2013-04-11 15:21:00,
2013-04-11 10:26:00,48.5,35.3,29.90,NNE,15,2.0,7.0,60,0.00,,,0.01,WeatherCatV1.02B3,2013-04-11 15:26:00,
2013-04-11 10:31:00,49.1,35.8,29.90,NNE,18,0.0,7.0,60,0.00,,,0.01,WeatherCatV1.02B3,2013-04-11 15:31:00,
2013-04-11 10:36:00,49.9,36.1,29.90,North,9,5.0,9.0,59,0.00,,,0.01,WeatherCatV1.02B3,2013-04-11 15:36:00,
2013-04-11 10:41:00,50.5,35.8,29.90,NNE,22,0.0,7.0,57,0.00,,,0.01,WeatherCatV1.02B3,2013-04-11 15:41:00,
2013-04-11 10:46:00,51.1,35.0,29.90,North,11,0.0,0.0,54,0.00,,,0.01,WeatherCatV1.02B3,2013-04-11 15:46:00,
2013-04-11 10:51:00,51.5,35.9,29.90,North,5,0.0,3.0,55,0.00,,,0.01,WeatherCatV1.02B3,2013-04-11 15:51:00,
2013-04-11 10:56:00,51.7,35.1,29.90,NNE,20,7.0,7.0,53,0.00,,,0.01,WeatherCatV1.02B3,2013-04-11 15:56:00,
2013-04-11 11:01:00,51.9,35.8,29.90,NNE,13,0.0,5.0,54,0.00,,,0.01,WeatherCatV1.02B3,2013-04-11 16:01:00,
2013-04-11 11:06:00,52.2,36.1,29.90,NE,42,3.0,9.0,54,0.00,,,0.01,WeatherCatV1.02B3,2013-04-11 16:06:00,
2013-04-11 11:11:00,52.5,35.9,29.90,NNE,23,1.0,4.0,53,0.00,,,0.01,WeatherCatV1.02B3,2013-04-11 16:11:00,
2013-04-11 11:16:00,52.9,35.8,29.90,North,10,0.0,4.0,52,0.00,,,0.01,WeatherCatV1.02B3,2013-04-11 16:16:00,
2013-04-11 11:21:00,53.3,36.6,29.90,North,5,0.0,6.0,53,0.00,,,0.01,WeatherCatV1.02B3,2013-04-11 16:21:00,
2013-04-11 11:26:00,53.6,35.4,29.90,North,0,0.0,6.0,50,0.00,,,0.01,WeatherCatV1.02B3,2013-04-11 16:26:00,
2013-04-11 11:31:00,53.9,36.7,29.90,NW,317,3.0,7.0,52,0.00,,,0.01,WeatherCatV1.02B3,2013-04-11 16:31:00,
2013-04-11 11:36:00,54.0,36.8,29.90,North,355,0.0,4.0,52,0.00,,,0.01,WeatherCatV1.02B3,2013-04-11 16:36:00,
2013-04-11 11:41:00,54.3,37.5,29.90,NNE,12,6.0,6.0,53,0.00,,,0.01,WeatherCatV1.02B3,2013-04-11 16:41:00,
2013-04-11 11:46:00,54.6,35.8,29.89,NE,35,0.0,4.0,49,0.00,,,0.01,WeatherCatV1.02B3,2013-04-11 16:46:00,
2013-04-11 11:51:00,54.9,36.6,29.89,NW,313,0.0,6.0,50,0.00,,,0.01,WeatherCatV1.02B3,2013-04-11 16:51:00,
2013-04-11 11:56:00,55.2,38.4,29.89,NW,317,1.0,1.0,53,0.00,,,0.01,WeatherCatV1.02B3,2013-04-11 16:56:00,
2013-04-11 12:01:00,55.2,36.9,29.88,WNW,294,1.0,9.0,50,0.00,,,0.01,WeatherCatV1.02B3,2013-04-11 17:01:00,
2013-04-11 12:06:00,55.1,36.8,29.88,NNE,32,4.0,6.0,50,0.00,,,0.01,WeatherCatV1.02B3,2013-04-11 17:06:00,
2013-04-11 12:11:00,55.4,37.1,29.88,NW,305,0.0,3.0,50,0.00,,,0.01,WeatherCatV1.02B3,2013-04-11 17:11:00,
2013-04-11 12:16:00,55.4,38.1,29.88,WNW,286,3.0,6.0,52,0.00,,,0.01,WeatherCatV1.02B3,2013-04-11 17:16:00,
2013-04-11 12:21:00,55.6,37.3,29.88,NW,323,4.0,6.0,50,0.00,,,0.01,WeatherCatV1.02B3,2013-04-11 17:21:00,
2013-04-11 12:26:00,55.8,37.9,29.88,NNE,19,4.0,5.0,51,0.00,,,0.01,WeatherCatV1.02B3,2013-04-11 17:26:00,
2013-04-11 12:31:00,56.1,37.7,29.87,West,267,4.0,5.0,50,0.00,,,0.01,WeatherCatV1.02B3,2013-04-11 17:31:00,
2013-04-11 12:36:00,56.3,38.4,29.87,NNW,336,0.0,4.0,51,0.00,,,0.01,WeatherCatV1.02B3,2013-04-11 17:36:00,
2013-04-11 12:42:00,56.5,38.1,29.87,NNW,347,1.0,4.0,50,0.00,,,0.01,WeatherCatV1.02B3,2013-04-11 17:42:00,
2013-04-11 12:47:00,56.7,37.8,29.86,WNW,290,2.0,3.0,49,0.00,,,0.01,WeatherCatV1.02B3,2013-04-11 17:47:00,
2013-04-11 12:52:00,56.8,38.4,29.86,WSW,252,0.0,4.0,50,0.00,,,0.01,WeatherCatV1.02B3,2013-04-11 17:52:00,
2013-04-11 12:57:00,56.8,38.9,29.86,North,0,1.0,4.0,51,0.00,,,0.01,WeatherCatV1.02B3,2013-04-11 17:57:00,
2013-04-11 13:02:00,57.1,38.1,29.86,WNW,294,0.0,3.0,49,0.00,,,0.01,WeatherCatV1.02B3,2013-04-11 18:02:00,
2013-04-11 13:07:00,57.3,37.2,29.86,North,5,0.0,2.0,47,0.00,,,0.01,WeatherCatV1.02B3,2013-04-11 18:07:00,
2013-04-11 13:12:00,57.5,38.5,29.86,North,5,0.0,1.0,49,0.00,,,0.01,WeatherCatV1.02B3,2013-04-11 18:12:00,
2013-04-11 13:17:00,57.9,39.4,29.85,NNW,329,4.0,5.0,50,0.00,,,0.01,WeatherCatV1.02B3,2013-04-11 18:17:00,
2013-04-11 13:22:00,58.1,37.4,29.85,NNW,342,0.0,0.0,46,0.00,,,0.01,WeatherCatV1.02B3,2013-04-11 18:22:00,
2013-04-11 13:27:00,58.0,37.3,29.85,North,355,0.0,1.0,46,0.00,,,0.01,WeatherCatV1.02B3,2013-04-11 18:27:00,
2013-04-11 13:32:00,58.1,39.0,29.85,West,269,3.0,9.0,49,0.00,,,0.01,WeatherCatV1.02B3,2013-04-11 18:32:00,
2013-04-11 13:37:00,58.1,38.0,29.85,NW,309,0.0,3.0,47,0.00,,,0.01,WeatherCatV1.02B3,2013-04-11 18:37:00,
2013-04-11 13:42:00,58.2,38.1,29.85,WNW,284,0.0,4.0,47,0.00,,,0.01,WeatherCatV1.02B3,2013-04-11 18:42:00,
2013-04-11 13:47:00,58.4,38.8,29.84,North,349,3.0,6.0,48,0.00,,,0.01,WeatherCatV1.02B3,2013-04-11 18:47:00,
2013-04-11 13:52:00,58.6,39.0,29.84,NNE,29,0.0,3.0,48,0.00,,,0.01,WeatherCatV1.02B3,2013-04-11 18:52:00,
2013-04-11 13:57:00,58.9,39.2,29.84,NNW,337,3.0,4.0,48,0.00,,,0.01,WeatherCatV1.02B3,2013-04-11 18:57:00,
2013-04-11 14:02:00,59.0,40.9,29.83,NNW,329,0.0,5.0,51,0.00,,,0.01,WeatherCatV1.02B3,2013-04-11 19:02:00,
2013-04-11 14:07:00,59.3,38.0,29.83,NNW,327,0.0,2.0,45,0.00,,,0.01,WeatherCatV1.02B3,2013-04-11 19:07:00,
2013-04-11 14:12:00,59.6,39.3,29.83,NW,310,2.0,3.0,47,0.00,,,0.01,WeatherCatV1.02B3,2013-04-11 19:12:00,
2013-04-11 14:17:00,59.9,39.1,29.83,NNW,329,0.0,2.0,46,0.00,,,0.01,WeatherCatV1.02B3,2013-04-11 19:17:00,
2013-04-11 14:22:00,60.2,38.8,29.83,NNE,19,0.0,1.0,45,0.00,,,0.01,WeatherCatV1.02B3,2013-04-11 19:22:00,
2013-04-11 14:27:00,60.4,39.5,29.83,NE,50,0.0,5.0,46,0.00,,,0.01,WeatherCatV1.02B3,2013-04-11 19:27:00,
2013-04-11 14:32:00,60.6,40.3,29.83,NNE,33,0.0,4.0,47,0.00,,,0.01,WeatherCatV1.02B3,2013-04-11 19:32:00,
2013-04-11 14:37:00,60.8,39.9,29.83,NE,51,0.0,7.0,46,0.00,,,0.01,WeatherCatV1.02B3,2013-04-11 19:37:00,
2013-04-11 14:42:00,61.2,40.8,29.83,North,5,2.0,5.0,47,0.00,,,0.01,WeatherCatV1.02B3,2013-04-11 19:42:00,
2013-04-11 14:47:00,61.5,40.5,29.82,NW,318,0.0,5.0,46,0.00,,,0.01,WeatherCatV1.02B3,2013-04-11 19:47:00,
2013-04-11 14:52:00,61.4,39.9,29.82,NNE,24,0.0,9.0,45,0.00,,,0.01,WeatherCatV1.02B3,2013-04-11 19:52:00,
2013-04-11 14:57:00,61.6,40.0,29.82,NE,34,2.0,7.0,45,0.00,,,0.01,WeatherCatV1.02B3,2013-04-11 19:57:00,
2013-04-11 15:02:00,61.9,39.2,29.80,NNW,343,5.0,5.0,43,0.00,,,0.01,WeatherCatV1.02B3,2013-04-11 20:02:00,
2013-04-11 15:07:00,62.2,41.2,29.80,NNE,32,0.0,4.0,46,0.00,,,0.01,WeatherCatV1.02B3,2013-04-11 20:07:00,
2013-04-11 15:12:00,62.3,39.5,29.80,NW,320,0.0,0.0,43,0.00,,,0.01,WeatherCatV1.02B3,2013-04-11 20:12:00,
2013-04-11 15:17:00,62.5,40.9,29.80,NNW,342,0.0,7.0,45,0.00,,,0.01,WeatherCatV1.02B3,2013-04-11 20:17:00,
2013-04-11 15:22:00,62.7,40.5,29.80,NNE,29,0.0,6.0,44,0.00,,,0.01,WeatherCatV1.02B3,2013-04-11 20:22:00,
2013-04-11 15:27:00,63.0,40.1,29.80,NNE,25,0.0,1.0,43,0.00,,,0.01,WeatherCatV1.02B3,2013-04-11 20:27:00,
2013-04-11 15:32:00,63.2,40.3,29.79,NNE,20,1.0,1.0,43,0.00,,,0.01,WeatherCatV1.02B3,2013-04-11 20:32:00,
2013-04-11 15:37:00,63.6,40.1,29.79,NE,40,0.0,2.0,42,0.00,,,0.01,WeatherCatV1.02B3,2013-04-11 20:37:00,
2013-04-11 15:42:00,63.8,41.5,29.79,NNE,32,0.0,5.0,44,0.00,,,0.01,WeatherCatV1.02B3,2013-04-11 20:42:00,
2013-04-11 15:47:00,63.9,39.1,29.78,NNE,32,0.0,2.0,40,0.00,,,0.01,WeatherCatV1.02B3,2013-04-11 20:47:00,
2013-04-11 15:52:00,63.9,39.7,29.78,West,273,0.0,3.0,41,0.00,,,0.01,WeatherCatV1.02B3,2013-04-11 20:52:00,
2013-04-11 15:57:00,63.8,39.6,29.78,West,266,0.0,0.0,41,0.00,,,0.01,WeatherCatV1.02B3,2013-04-11 20:57:00,
2013-04-11 16:02:00,63.7,41.4,29.77,North,5,2.0,4.0,44,0.00,,,0.01,WeatherCatV1.02B3,2013-04-11 21:02:00,
2013-04-11 16:07:00,63.8,40.3,29.77,NNW,333,4.0,4.0,42,0.00,,,0.01,WeatherCatV1.02B3,2013-04-11 21:07:00,
2013-04-11 16:12:00,63.6,38.8,29.77,NNW,341,0.0,0.0,40,0.00,,,0.01,WeatherCatV1.02B3,2013-04-11 21:12:00,
2013-04-11 16:17:00,63.7,40.8,29.77,NNW,346,2.0,3.0,43,0.00,,,0.01,WeatherCatV1.02B3,2013-04-11 21:17:00,
2013-04-11 16:22:00,64.1,39.9,29.77,NNE,19,3.0,5.0,41,0.00,,,0.01,WeatherCatV1.02B3,2013-04-11 21:22:00,
2013-04-11 16:27:00,64.3,39.5,29.77,NE,49,0.0,2.0,40,0.00,,,0.01,WeatherCatV1.02B3,2013-04-11 21:27:00,
2013-04-11 16:32:00,64.3,40.1,29.77,WNW,300,1.0,3.0,41,0.00,,,0.01,WeatherCatV1.02B3,2013-04-11 21:32:00,
2013-04-11 16:37:00,64.2,40.0,29.77,West,277,0.0,3.0,41,0.00,,,0.01,WeatherCatV1.02B3,2013-04-11 21:37:00,
2013-04-11 16:42:00,63.9,39.1,29.77,WSW,245,0.0,1.0,40,0.00,,,0.01,WeatherCatV1.02B3,2013-04-11 21:42:00,
2013-04-11 16:47:00,63.8,37.7,29.76,WSW,248,0.0,3.0,38,0.00,,,0.01,WeatherCatV1.02B3,2013-04-11 21:47:00,
2013-04-11 16:52:00,64.0,39.8,29.76,West,262,0.0,1.0,41,0.00,,,0.01,WeatherCatV1.02B3,2013-04-11 21:52:00,
2013-04-11 16:57:00,63.8,39.0,29.76,SW,229,2.0,2.0,40,0.00,,,0.01,WeatherCatV1.02B3,2013-04-11 21:57:00,
2013-04-11 17:02:00,63.4,38.7,29.76,West,276,0.0,1.0,40,0.00,,,0.01,WeatherCatV1.02B3,2013-04-11 22:02:00,
2013-04-11 17:07:00,63.5,38.7,29.76,West,277,0.0,1.0,40,0.00,,,0.01,WeatherCatV1.02B3,2013-04-11 22:07:00,
2013-04-11 17:12:00,64.0,39.2,29.76,North,355,0.0,4.0,40,0.00,,,0.01,WeatherCatV1.02B3,2013-04-11 22:12:00,
2013-04-11 17:17:00,64.4,39.5,29.75,North,11,0.0,3.0,40,0.00,,,0.01,WeatherCatV1.02B3,2013-04-11 22:17:00,
2013-04-11 17:22:00,64.7,39.8,29.75,NNW,338,1.0,4.0,40,0.00,,,0.01,WeatherCatV1.02B3,2013-04-11 22:22:00,
2013-04-11 17:27:00,64.8,39.3,29.75,North,349,0.0,3.0,39,0.00,,,0.01,WeatherCatV1.02B3,2013-04-11 22:27:00,
2013-04-11 17:32:00,64.8,39.9,29.75,North,349,0.0,1.0,40,0.00,,,0.01,WeatherCatV1.02B3,2013-04-11 22:32:00,
2013-04-11 17:37:00,64.4,38.9,29.75,North,349,0.0,1.0,39,0.00,,,0.01,WeatherCatV1.02B3,2013-04-11 22:37:00,
2013-04-11 17:42:00,64.1,40.5,29.75,North,350,0.0,1.0,42,0.00,,,0.01,WeatherCatV1.02B3,2013-04-11 22:42:00,
2013-04-11 17:47:00,63.8,39.6,29.76,North,349,3.0,3.0,41,0.00,,,0.01,WeatherCatV1.02B3,2013-04-11 22:47:00,
2013-04-11 17:52:00,63.6,39.5,29.76,North,349,0.0,1.0,41,0.00,,,0.01,WeatherCatV1.02B3,2013-04-11 22:52:00,
2013-04-11 17:57:00,63.2,38.5,29.76,North,350,0.0,0.0,40,0.00,,,0.01,WeatherCatV1.02B3,2013-04-11 22:57:00,
2013-04-11 18:02:00,62.9,39.5,29.76,North,349,1.0,1.0,42,0.00,,,0.01,WeatherCatV1.02B3,2013-04-11 23:02:00,
2013-04-11 18:07:00,62.5,37.8,29.76,North,349,3.0,3.0,40,0.00,,,0.01,WeatherCatV1.02B3,2013-04-11 23:07:00,
2013-04-11 18:12:00,62.1,38.1,29.76,North,349,0.0,1.0,41,0.00,,,0.01,WeatherCatV1.02B3,2013-04-11 23:12:00,
2013-04-11 18:17:00,61.9,38.6,29.76,North,349,0.0,1.0,42,0.00,,,0.01,WeatherCatV1.02B3,2013-04-11 23:17:00,
2013-04-11 18:22:00,61.7,37.8,29.76,North,349,0.0,3.0,41,0.00,,,0.01,WeatherCatV1.02B3,2013-04-11 23:22:00,
2013-04-11 18:27:00,61.4,38.7,29.76,North,349,2.0,2.0,43,0.00,,,0.01,WeatherCatV1.02B3,2013-04-11 23:27:00,
2013-04-11 18:32:00,61.2,38.5,29.76,North,350,0.0,1.0,43,0.00,,,0.01,WeatherCatV1.02B3,2013-04-11 23:32:00,
2013-04-11 18:37:00,61.0,37.1,29.76,North,349,0.0,0.0,41,0.00,,,0.01,WeatherCatV1.02B3,2013-04-11 23:37:00,
2013-04-11 18:42:00,60.8,37.6,29.76,North,349,0.0,0.0,42,0.00,,,0.01,WeatherCatV1.02B3,2013-04-11 23:42:00,
2013-04-11 18:47:00,60.6,36.8,29.76,North,350,0.0,0.0,41,0.00,,,0.01,WeatherCatV1.02B3,2013-04-11 23:47:00,
2013-04-11 18:52:00,60.5,37.9,29.76,North,349,0.0,0.0,43,0.00,,,0.01,WeatherCatV1.02B3,2013-04-11 23:52:00,
2013-04-11 18:57:00,60.4,37.2,29.76,North,349,0.0,1.0,42,0.00,,,0.01,WeatherCatV1.02B3,2013-04-11 23:57:00,
2013-04-11 19:02:00,60.2,38.2,29.77,North,350,0.0,1.0,44,0.00,,,0.01,WeatherCatV1.02B3,2013-04-12 00:02:00,
2013-04-11 19:07:00,60.1,38.7,29.77,North,349,0.0,0.0,45,0.00,,,0.01,WeatherCatV1.02B3,2013-04-12 00:07:00,
2013-04-11 19:12:00,60.0,40.8,29.77,North,349,0.0,0.0,49,0.00,,,0.01,WeatherCatV1.02B3,2013-04-12 00:12:00,
2013-04-11 19:17:00,59.9,41.2,29.77,North,349,0.0,1.0,50,0.00,,,0.01,WeatherCatV1.02B3,2013-04-12 00:17:00,
2013-04-11 19:22:00,59.8,42.6,29.77,North,349,0.0,0.0,53,0.00,,,0.01,WeatherCatV1.02B3,2013-04-12 00:22:00,
2013-04-11 19:27:00,59.6,42.0,29.77,North,349,0.0,0.0,52,0.00,,,0.01,WeatherCatV1.02B3,2013-04-12 00:27:00,
2013-04-11 19:32:00,59.4,42.3,29.77,North,349,0.0,0.0,53,0.00,,,0.01,WeatherCatV1.02B3,2013-04-12 00:32:00,
2013-04-11 19:37:00,59.1,42.9,29.77,North,349,0.0,0.0,55,0.00,,,0.01,WeatherCatV1.02B3,2013-04-12 00:37:00,
2013-04-11 19:42:00,58.7,43.0,29.77,North,349,0.0,0.0,56,0.00,,,0.01,WeatherCatV1.02B3,2013-04-12 00:42:00,
2013-04-11 19:47:00,58.3,43.6,29.76,North,350,0.0,0.0,58,0.00,,,0.01,WeatherCatV1.02B3,2013-04-12 00:47:00,
2013-04-11 19:52:00,57.7,42.6,29.76,North,349,0.0,0.0,57,0.00,,,0.01,WeatherCatV1.02B3,2013-04-12 00:52:00,
2013-04-11 19:57:00,57.2,43.0,29.76,North,349,0.0,0.0,59,0.00,,,0.01,WeatherCatV1.02B3,2013-04-12 00:57:00,
2013-04-11 20:02:00,56.8,43.1,29.77,North,350,0.0,0.0,60,0.00,,,0.01,WeatherCatV1.02B3,2013-04-12 01:02:00,
2013-04-11 20:07:00,56.3,43.0,29.77,North,349,0.0,0.0,61,0.00,,,0.01,WeatherCatV1.02B3,2013-04-12 01:07:00,
2013-04-11 20:12:00,55.8,43.4,29.77,North,349,0.0,0.0,63,0.00,,,0.01,WeatherCatV1.02B3,2013-04-12 01:12:00,
2013-04-11 20:17:00,55.0,43.5,29.77,North,350,0.0,0.0,65,0.00,,,0.01,WeatherCatV1.02B3,2013-04-12 01:17:00,
2013-04-11 20:22:00,54.4,43.3,29.77,North,349,0.0,0.0,66,0.00,,,0.01,WeatherCatV1.02B3,2013-04-12 01:22:00,
2013-04-11 20:27:00,54.0,43.3,29.77,North,349,0.0,0.0,67,0.00,,,0.01,WeatherCatV1.02B3,2013-04-12 01:27:00,
2013-04-11 20:32:00,53.5,43.2,29.78,North,350,0.0,0.0,68,0.00,,,0.01,WeatherCatV1.02B3,2013-04-12 01:32:00,
2013-04-11 20:37:00,53.2,43.3,29.78,North,349,0.0,0.0,69,0.00,,,0.01,WeatherCatV1.02B3,2013-04-12 01:37:00,
2013-04-11 20:42:00,52.8,42.9,29.78,North,349,0.0,0.0,69,0.00,,,0.01,WeatherCatV1.02B3,2013-04-12 01:42:00,
2013-04-11 20:47:00,52.5,43.0,29.78,North,349,0.0,0.0,70,0.00,,,0.01,WeatherCatV1.02B3,2013-04-12 01:47:00,
2013-04-11 20:52:00,52.2,43.4,29.78,North,349,0.0,0.0,72,0.00,,,0.01,WeatherCatV1.02B3,2013-04-12 01:52:00,
2013-04-11 20:57:00,51.9,43.2,29.78,North,349,0.0,0.0,72,0.00,,,0.01,WeatherCatV1.02B3,2013-04-12 01:57:00,
2013-04-11 21:02:00,51.5,43.1,29.78,North,349,0.0,0.0,73,0.00,,,0.01,WeatherCatV1.02B3,2013-04-12 02:02:00,
2013-04-11 21:07:00,51.3,43.6,29.78,North,349,0.0,0.0,75,0.00,,,0.01,WeatherCatV1.02B3,2013-04-12 02:07:00,
2013-04-11 21:12:00,51.1,43.8,29.78,North,349,0.0,0.0,76,0.00,,,0.01,WeatherCatV1.02B3,2013-04-12 02:12:00,
2013-04-11 21:17:00,50.8,43.2,29.78,North,349,0.0,0.0,75,0.00,,,0.01,WeatherCatV1.02B3,2013-04-12 02:17:00,
2013-04-11 21:22:00,50.6,43.0,29.78,North,349,0.0,0.0,75,0.00,,,0.01,WeatherCatV1.02B3,2013-04-12 02:22:00,
2013-04-11 21:27:00,50.4,43.5,29.78,North,349,0.0,0.0,77,0.00,,,0.01,WeatherCatV1.02B3,2013-04-12 02:27:00,
2013-04-11 21:32:00,50.1,43.2,29.78,North,350,0.0,0.0,77,0.00,,,0.01,WeatherCatV1.02B3,2013-04-12 02:32:00,
2013-04-11 21:37:00,49.9,43.0,29.78,North,349,0.0,0.0,77,0.00,,,0.01,WeatherCatV1.02B3,2013-04-12 02:37:00,
2013-04-11 21:42:00,49.7,42.8,29.78,North,349,0.0,0.0,77,0.00,,,0.01,WeatherCatV1.02B3,2013-04-12 02:42:00,
2013-04-11 21:47:00,49.5,42.6,29.79,North,349,0.0,0.0,77,0.00,,,0.01,WeatherCatV1.02B3,2013-04-12 02:47:00,
2013-04-11 21:52:00,49.3,42.7,29.79,North,349,0.0,0.0,78,0.00,,,0.01,WeatherCatV1.02B3,2013-04-12 02:52:00,
2013-04-11 21:57:00,49.1,42.2,29.79,North,349,0.0,2.0,77,0.00,,,0.01,WeatherCatV1.02B3,2013-04-12 02:57:00,
2013-04-11 22:02:00,49.0,42.4,29.79,North,350,0.0,1.0,78,0.00,,,0.01,WeatherCatV1.02B3,2013-04-12 03:02:00,
2013-04-11 22:07:00,48.8,42.2,29.79,North,349,0.0,0.0,78,0.00,,,0.01,WeatherCatV1.02B3,2013-04-12 03:07:00,
2013-04-11 22:12:00,48.7,41.8,29.79,North,349,0.0,0.0,77,0.00,,,0.01,WeatherCatV1.02B3,2013-04-12 03:12:00,
2013-04-11 22:17:00,48.6,42.1,29.79,North,349,0.0,0.0,78,0.00,,,0.01,WeatherCatV1.02B3,2013-04-12 03:17:00,
2013-04-11 22:22:00,48.5,42.0,29.79,North,349,0.0,0.0,78,0.00,,,0.01,WeatherCatV1.02B3,2013-04-12 03:22:00,
2013-04-11 22:27:00,48.4,41.9,29.79,North,349,0.0,0.0,78,0.00,,,0.01,WeatherCatV1.02B3,2013-04-12 03:27:00,
2013-04-11 22:32:00,48.3,41.8,29.80,North,349,0.0,0.0,78,0.00,,,0.01,WeatherCatV1.02B3,2013-04-12 03:32:00,
2013-04-11 22:37:00,48.3,41.8,29.80,North,350,0.0,0.0,78,0.00,,,0.01,WeatherCatV1.02B3,2013-04-12 03:37:00,
2013-04-11 22:42:00,48.2,42.0,29.80,North,349,0.0,0.0,79,0.00,,,0.01,WeatherCatV1.02B3,2013-04-12 03:42:00,
2013-04-11 22:47:00,48.1,41.9,29.80,North,349,0.0,0.0,79,0.00,,,0.01,WeatherCatV1.02B3,2013-04-12 03:47:00,
2013-04-11 22:52:00,48.0,41.8,29.80,North,349,0.0,0.0,79,0.00,,,0.01,WeatherCatV1.02B3,2013-04-12 03:52:00,
2013-04-11 22:57:00,47.9,41.7,29.80,North,349,0.0,0.0,79,0.00,,,0.01,WeatherCatV1.02B3,2013-04-12 03:57:00,
2013-04-11 23:00:00,47.9,41.7,29.80,North,350,0.0,0.0,79,0.00,,,0.01,WeatherCatV1.02B3,2013-04-12 04:00:00,
2013-04-11 23:01:00,47.9,41.7,29.80,North,350,0.0,0.0,79,0.00,,,0.01,WeatherCatV1.02B3,2013-04-12 04:01:00,
2013-04-11 23:06:00,47.8,41.6,29.80,North,349,0.0,0.0,79,0.00,,,0.01,WeatherCatV1.02B3,2013-04-12 04:06:00,
2013-04-11 23:11:00,47.7,41.5,29.80,North,350,0.0,0.0,79,0.00,,,0.01,WeatherCatV1.02B3,2013-04-12 04:11:00,
2013-04-11 23:16:00,47.6,41.7,29.80,North,349,0.0,0.0,80,0.00,,,0.01,WeatherCatV1.02B3,2013-04-12 04:16:00,
2013-04-11 23:21:00,47.5,41.3,29.80,North,349,0.0,0.0,79,0.00,,,0.01,WeatherCatV1.02B3,2013-04-12 04:21:00,
2013-04-11 23:26:00,47.4,41.5,29.80,North,349,0.0,0.0,80,0.00,,,0.01,WeatherCatV1.02B3,2013-04-12 04:26:00,
2013-04-11 23:31:00,47.3,41.1,29.80,North,349,0.0,0.0,79,0.00,,,0.01,WeatherCatV1.02B3,2013-04-12 04:31:00,
2013-04-11 23:36:00,47.3,41.1,29.80,North,350,0.0,0.0,79,0.00,,,0.01,WeatherCatV1.02B3,2013-04-12 04:36:00,
2013-04-11 23:41:00,47.2,41.3,29.80,North,349,0.0,0.0,80,0.00,,,0.01,WeatherCatV1.02B3,2013-04-12 04:41:00,
2013-04-11 23:46:00,47.1,41.3,29.80,North,350,0.0,0.0,80,0.00,,,0.01,WeatherCatV1.02B3,2013-04-12 04:46:00,
2013-04-11 23:51:00,47.0,41.2,29.80,North,350,0.0,0.0,80,0.00,,,0.01,WeatherCatV1.02B3,2013-04-12 04:51:00,
2013-04-11 23:56:00,46.9,41.1,29.80,North,349,0.0,0.0,80,0.00,,,0.01,WeatherCatV1.02B3,2013-04-12 04:56:00,